WN44 weather

Podeweltz Airport
Merrill, Wisconsin, United States

Public forecast

Using degrees Fahrenheit for public forecast. Weather courtesy of forecast.io.

METAR (pilot weather report)

Closest report is Merrill Municipal Airport, 6.6 nm (12.1 km) WSW. Retrieved 2019/08/25 21:35 UTC (22 minutes ago):

KRRL 252135Z AUTO 16008G15KT 10SM BKN044 21/13 A3006 RMK AO2 T02100126 TSNO

TAF (pilot weather forecast)

Closest forecast is Wausau Downtown Airport, 19.0 nm (35.1 km) S. Retrieved 2019/08/25 18:39 UTC (3 hours ago):

TAF KAUW 251736Z 2518/2618 15010G17KT P6SM SCT040 SCT200 TEMPO 2518/2521 BKN040 FM252100 15009G16KT P6SM SCT050 BKN200 FM260200 13007KT P6SM SCT035 BKN110 FM260600 13005KT P6SM BKN035 BKN090 FM261500 14009G15KT P6SM BKN025 BKN060